Wednesday, February 19, 2014

Porto Night Flight Photos

Here are a sequence of photos from almost one year ago when I did my second night flight. This time with me at the controls :). 
The flight included various approaches at Sá Carneiro Airport, Porto. The runway in use was the 35 (pointing North), so we did Visual and VOR approaches with the aid of the backcourse signal from the ILS runway 17.

Photo credits go to Rui Silva.

Doing the paperwork.
Checking the fuel!
Should I fill the tanks or not??
It's better to fill! As we say: "The only time we have too much fuel is when we are on fire!"
Instructor supervising!!!
Last look at the approaches we are going to do. 
Listening the ATIS (Automatic Terminal Information Service) to check the runway in use and meteorology.
Porto city.
Porto Stadium.
VOR Approach to runway 35.

The instrument that ALL airplanes have - Compass.
Short Final runway 35
Following the sun to the USA!!






Matosinhos Refinery - Petrogal. 
Porto city. On the right side the Arrábida Bridge.
Foz do Douro.

Follow Me please :)
Time to call the day off and go home.

Saturday, February 1, 2014

Baptism flights

I have been doing some baptism flights lately and one of the things that I have noticed on the videos is the facial expressions. Some are more discrete than others but at the end they all have happy faces :).  Some had already flown on commercial flights (big jets) but the small planes are a different world! The sensations are more intense and you are able to see the world closer and slower.

As soon as the airplane leaves earth below there is a new world to discover and it's a very pleasant feeling to see the happiness in their faces, it kinda reminds me of the way I felt the first time I also flew.

Below are some videos of the baptism flights I have done:






Wednesday, November 13, 2013

Commercial Pilot exam: Debriefing

The exam was a few months ago but it was a day that I'll not forget easily. So here is the report.
The D day arrived, it was time for me to demonstrate correctly all the things that I been training for the last 2 years.

A long day was waiting for me. The exam was scheduled for 15h00 but before that I had my last training flight in the morning, just to complete all the hours necessary. 

The weather wasn't great (at least if you want calm winds and clear skies for your final exam) but I always love to have some clouds :). In Portugal is typical to have a low layer of clouds along the shoreline during the summer and that week was no different! 

Here is the METAR reports for that day at Francisco Sá Carneiro Airport, Porto:
170900Z 33004KT 260V060 4000 BR OVC004 18/17 Q1020=
170930Z 32004KT 290V360 6000 BKN005 20/18 Q1020=
171000Z 34004KT 260V050 7000 FEW007 21/18 Q1020=
171030Z 29006KT 8000 FEW008 21/19 Q1020=
171100Z 29006KT 240V320 6000 SCT008 21/18 Q1020=
171130Z 29006KT 250V340 6000 SCT006 20/18 Q1020=
171200Z 30007KT 260V340 8000 BKN006 20/18 Q1020=
171230Z 30007KT 260V350 7000 BKN004 20/18 Q1020=
171300Z 29005KT 240V360 7000 BKN004 19/17 Q1020=
171330Z 29005KT 240V330 8000 BKN004 BKN007 19/17 Q1020=
171400Z 30005KT 240V350 8000 BKN004 BKN006 20/17 Q1020=
171430Z 31006KT 260V350 8000 BKN005 19/17 Q1020=
171500Z 30005KT 260V350 8000 OVC004 19/17 Q1020=
171530Z 30006KT 260V350 6000 OVC004 18/17 Q1019=
171600Z 29005KT 250V320 7000 SCT003 OVC005 19/17 Q1019=
171630Z 29004KT 250V360 6000 BKN003 OVC006 18/17 Q1019=
171700Z 29005KT 240V320 6000 BKN003 OVC007 18/17 Q1019=
171730Z 29004KT 6000 BKN004 19/17 Q1018=

For those who can not decode this cluster of numbers here is a resume.
At 0930Z, 10h30 local time, the wind was calm with a visibility of 6 Km and cloud base at 500 feet (broken), temperature 20ºC.
At 1500Z, 16h00 local time, the visibility was 8 Km and the cloud base was 400 feet (overcast).
The minimums for an ILS CAT1 approach at Porto is 351 feet (200 feet above ground level). So the weather was really close to the minimums!
Low visibility ILS CAT1 approach to runway 17 at Porto airport. 
In my training flight (morning) I flew twice the ILS CAT1 approach until the minimums. The cloud base for that time was around 500 feet. You can see the video of the last approach below.

Last instruction flight from ATPL course 1/11 aka "Haboobs"

After the training flight, a pause to eat something quickly and then start planning the flight exam. Always in a rush! 
After checking the Porto METAR I was expecting a lower cloud base than in the morning flight but still above the minimums. If it was below minimums the Plan B was to fly to Vigo airport, Spain.
The plan A was to takeoff from Vilar de Luz, Maia, ask Porto Approach for 2 ILS approaches then fly to Viseu where I should do rest of the exam.

Check one last time that all the paper work is done and time to go sit with the examiner. He explained what he was looking for me to do during the exam and did some questions about the velocities V1/V2/VMCA, the ASDA (Accelerate Stop Distance Available) distance and how we can reduce this distance, some emergencies like a vacuum pump failure, what is the critical engine and P-factor and what effects has during the takeoff roll.
Me executing a low pass at Porto airport, Piper Seminole. Photo credits: LapaG
Briefing completed! Time to go to the airplane, Piper PA-44 Seminole, but before that a last check on the METAR just to make sure the weather still above minimums!
Battery ON...  Magnetos ON... Fuel Pump ON... Primer  and Starter ON...  Engines running!
After start checklist please!
During the instrument setup for the departure I forgot to setup the NAV2 accordingly, the first small mistake. During the take-off roll a simulated engine failure was done successfully and we continue the take-off direct to Famalicão at 2000 feet as per Porto Approach instructions.
We requested an ILS approach which was granted with "CS-DGN, cleared to final ILS17, expedite". We climbed to 2400 feet and increased our airspeed. There were some big jets coming to land, it's better if you rush if you don't want to get in a hold!
At the localizer interception, power reduced, check airspeed, landing gear down, flaps down, trim the airplane! This all happened faster than I usually do because of the excessive airspeed that I was flying but I manage to get the airplane establish on the ILS well! :)

"Porto Approach, CS-DGN establish ILS 17, request another approach after this one"
"CS-DGN continue. At the minimums turn right heading 260 climb 4000 feet"

I never had an approach with such low cloud base and which better time to have one than on your final exam! :) Even the air controller was worried (I think more than me! :)) because just before I made the callout "100 to minimums" the controller asked if we had the approach lights in sight. Which we answer "Negative!" 
A few seconds later, approach lights in sight, minimums and go-around turning right to the sea getting ready for another approach. The downwind leg was flown at slow airspeed, 80 kts, to give time for the big jets to land. Then:

"CS-DGN descend 3000 feet. Clear for ILS approach"

Just as I was intercepting the localizer my examiner pulled back the throttle of one engine. I continue the localizer interception while doing the procedures for one engine failure! I had a little trouble to find the right trim setting but after a few moments I got it. Nevertheless, in the last 1-2 nm of the approach I started deviating from the glideslope and ended up arriving at the minimums 1 dot above glideslope.
Go-around turning left this time to heading 090 and climbing FL060 (Flight Level) direct to Viseu VOR (VIS). During the climb I was asked to climb at different airspeeds.

At cruise, partial panel was simulated and I calculate the winds aloft. At some point during the cruise I felt an engine was quitting to work! I quickly set mixtures rich, prop forward, throttle forward and checked the fuel pressure decreasing on the right engine! I checked the fuel selector and it was in the OFF position. Returned it to the ON position and the engine started to run again smoothly! One more emergency completed successfully :)

After this I did the basic maneuvers as the 45deg bank turn, clean configuration stall recovery, stall turn, approach to stall recovery in landing configuration, VMCA (Minimum control speed in the take-off configuration) demonstration and the unusual attitude recovery. 
Stall recovery
45deg bank turn
Then it was time for one more emergency, this time was a loss of oil pressure on the right engine. I did all the memory items to shutdown the engine (Identify, Throttle idle, Mixture OFF, Prop Feather, Fuel Selector OFF, Cowl flap close) and then run the checklist to secure the engine.
IMPORTANT: Before switching any button or handle I confirmed with the examiner that was the correct engine. You don't want to shutdown the other engine also!

Uupps...Something that is suppose to be turning isn't!
It was time to do the restart engine procedures (it take more time to start than normal) and do an ADF holding and VOR approach to Viseu aerodrome. There was some turbulence to make the things more challenging. 

It was time for another emergency, engine failure after take-off! Procedures done to simulate a feather engine (2000 RPM, 15' MP) and continue with a Single-Engine circuit followed by a SE Go-Around. One more single-engine circuit for a touch and go. Once again, to increase the challenging, the crosswind intensity was greater than I had experienced in that airplane, until that day!
VOR app chart for runway 36 at Viseu. 
And because this is all about emergencies (most of it), time for a landing gear problem. I selected gear down and the three green lights that are suppose to light are OFF. Run the checklist for manual extension of the landing gear and magic happens: 3 green lights ON! :)

At this point I was so tired, thirsty, with a little headache and a little airsick that I just wanted to land the damn airplane! So I was glad to hear the examiner saying "It's time for you to take me home!" But I knew I had to keep focus because the day was not over!

So direct to Vilar de Luz, during the cruise I relaxed a little (maybe 3 min) then was time to prepare the descent and approach (GPS approach). I arrived high (very high!!) on final. One more thing to be tested, can I make the landing or not? Power idle... airplane dirty (landing gear down and full flaps)... 70kts... 1500-1700fpm rate of descent until short final. Resume normal airspeed and rate of descent and touchdown.

The eagle has landed safely and successfully! :) 

Monday, November 4, 2013

My Parents baptism flight

This was a flight that I was trying to make for some time. Finally, all conditions lined up and it was time for all the family enjoy a flight trip. :)

My mother gets motion sickness easily so I thought the flight should be on a calm day and she would be sitting in the front seat. But after take-off I decided to push the limits a little higher. I did some steep bank turns, quick climbs and descends. She withstand all that better then some pilots! :)

My plan was to go to Nazaré to see the big waves at Praia do Norte. There been some surfers trying to beat the record established of 30m wave by Garret McNamara.

Plane: C172
Route: LPJF (Leiria) -> Arroteia -> Sismaria -> Pedrogão -> Nazaré -> LPJF (56 nm)


Here are some photos (credits go to my brother :)) and the video that resumes the flight.



S.Pedro Moel pool
S.Pedro Moel Lighthouse



Praia da Povoeira



Praia das Paredes


Praia do Norte, Nazaré


Nazaré


Nazaré marina

Leiria Stadium
Leiria Castle